createdAt,value
2023-07-11T00:00:40.360Z,98244.79
2023-07-11T00:03:07.148Z,98253.53
2023-07-11T00:05:33.782Z,98258.81
2023-07-11T00:08:00.350Z,98258.93
2023-07-11T00:10:27.087Z,98256.84
2023-07-11T00:12:53.969Z,98251.41
2023-07-11T00:15:20.544Z,98248.63
2023-07-11T00:17:48.893Z,98245.67
2023-07-11T00:20:16.632Z,98244.68
2023-07-11T00:22:44.946Z,98243.77
2023-07-11T00:25:13.463Z,98241.39
2023-07-11T00:27:41.042Z,98240.77
2023-07-11T00:30:08.742Z,98237.73
2023-07-11T00:32:35.965Z,98232.00
2023-07-11T00:35:02.657Z,98224.23
2023-07-11T00:37:29.191Z,98221.40
2023-07-11T00:39:55.816Z,98219.33
2023-07-11T00:42:22.462Z,98223.05
2023-07-11T00:44:49.902Z,98215.73
2023-07-11T00:47:16.619Z,98210.27
2023-07-11T00:49:43.300Z,98212.14
2023-07-11T00:52:10.562Z,98215.82
2023-07-11T00:54:38.680Z,98212.91
2023-07-11T00:57:10.505Z,98224.07
2023-07-11T00:59:37.339Z,98229.91
2023-07-11T01:02:09.694Z,98225.92
2023-07-11T01:04:38.636Z,98218.67
2023-07-11T01:07:08.755Z,98214.02
2023-07-11T01:09:35.786Z,98214.66
2023-07-11T01:12:06.355Z,98208.69
2023-07-11T01:14:32.901Z,98205.88
2023-07-11T01:16:59.715Z,98205.36
2023-07-11T01:19:26.878Z,98198.39
2023-07-11T01:21:53.924Z,98191.13
2023-07-11T01:24:20.447Z,98179.70
2023-07-11T01:26:46.957Z,98173.96
2023-07-11T01:29:13.966Z,98167.86
2023-07-11T01:31:40.542Z,98164.79
2023-07-11T01:34:08.592Z,98160.20
2023-07-11T01:36:35.789Z,98157.09
2023-07-11T01:39:02.393Z,98158.98
2023-07-11T01:41:29.028Z,98164.55
2023-07-11T01:43:56.171Z,98171.16
2023-07-11T01:46:22.877Z,98177.37
2023-07-11T01:48:49.718Z,98173.38
2023-07-11T01:51:17.117Z,98173.70
2023-07-11T01:53:43.881Z,98173.36
2023-07-11T01:56:10.550Z,98168.98
2023-07-11T01:58:37.029Z,98167.98
2023-07-11T02:01:03.612Z,98168.96
2023-07-11T02:03:30.896Z,98162.89
2023-07-11T02:05:58.234Z,98163.41
2023-07-11T02:08:25.009Z,98163.34
2023-07-11T02:10:51.654Z,98170.23
2023-07-11T02:13:18.277Z,98173.52
2023-07-11T02:15:44.800Z,98176.30
2023-07-11T02:18:11.831Z,98173.60
2023-07-11T02:20:43.620Z,98177.34
2023-07-11T02:23:11.965Z,98170.88
2023-07-11T02:25:40.701Z,98175.56
2023-07-11T02:28:08.334Z,98179.50
2023-07-11T02:30:35.541Z,98176.97
2023-07-11T02:33:02.399Z,98175.11
2023-07-11T02:35:29.188Z,98179.48
2023-07-11T02:37:56.328Z,98178.30
2023-07-11T02:40:23.027Z,98184.04
2023-07-11T02:42:49.516Z,98181.79
2023-07-11T02:45:16.533Z,98180.27
2023-07-11T02:47:43.159Z,98182.40
2023-07-11T02:50:10.077Z,98184.65
2023-07-11T02:52:37.771Z,98182.20
2023-07-11T02:55:05.445Z,98185.67
2023-07-11T02:57:32.280Z,98181.92
2023-07-11T02:59:58.958Z,98184.73
2023-07-11T03:02:25.566Z,98195.25
2023-07-11T03:04:52.365Z,98194.95
2023-07-11T03:07:19.356Z,98188.55
2023-07-11T03:09:45.846Z,98194.19
2023-07-11T03:12:12.365Z,98196.38
2023-07-11T03:14:38.932Z,98196.52
2023-07-11T03:17:05.597Z,98200.38
2023-07-11T03:19:32.609Z,98196.63
2023-07-11T03:21:59.464Z,98191.70
2023-07-11T03:24:25.966Z,98196.11
2023-07-11T03:26:52.736Z,98189.18
2023-07-11T03:29:19.412Z,98185.02
2023-07-11T03:31:45.944Z,98182.77
2023-07-11T03:34:12.574Z,98185.27
2023-07-11T03:36:39.839Z,98185.89
2023-07-11T03:39:06.552Z,98189.84
2023-07-11T03:41:33.484Z,98186.79
2023-07-11T03:44:00.992Z,98189.11
2023-07-11T03:46:28.141Z,98194.95
2023-07-11T03:48:55.108Z,98199.50
2023-07-11T03:51:21.686Z,98203.25
2023-07-11T03:53:48.293Z,98204.13
2023-07-11T03:56:14.774Z,98203.17
2023-07-11T03:58:41.420Z,98202.84
2023-07-11T04:01:07.927Z,98203.08
2023-07-11T04:03:35.026Z,98206.02
2023-07-11T04:06:01.930Z,98211.54
2023-07-11T04:08:28.466Z,98208.79
2023-07-11T04:10:56.967Z,98213.85
2023-07-11T04:13:23.822Z,98213.90
2023-07-11T04:15:50.485Z,98216.25
2023-07-11T04:18:17.109Z,98219.15
2023-07-11T04:20:44.175Z,98215.98
2023-07-11T04:23:11.231Z,98215.25
2023-07-11T04:25:37.757Z,98214.30
2023-07-11T04:28:06.198Z,98209.50
2023-07-11T04:30:33.762Z,98209.41
2023-07-11T04:33:00.999Z,98213.08
2023-07-11T04:35:27.635Z,98208.57
2023-07-11T04:37:54.186Z,98210.38
2023-07-11T04:40:20.699Z,98208.09
2023-07-11T04:42:47.564Z,98217.14
2023-07-11T04:45:14.189Z,98223.50
2023-07-11T04:47:40.696Z,98224.81
2023-07-11T04:50:08.021Z,98230.45
2023-07-11T04:52:34.565Z,98224.67
2023-07-11T04:55:01.266Z,98223.51
2023-07-11T04:57:27.853Z,98225.91
2023-07-11T04:59:54.334Z,98227.06
2023-07-11T05:02:20.860Z,98232.44
2023-07-11T05:04:47.508Z,98235.14
2023-07-11T05:07:14.968Z,98234.04
2023-07-11T05:09:57.197Z,98239.30
2023-07-11T05:12:25.857Z,98237.98
2023-07-11T05:14:52.534Z,98239.27
2023-07-11T05:17:19.283Z,98240.35
2023-07-11T05:19:46.044Z,98243.38
2023-07-11T05:22:12.878Z,98240.50
2023-07-11T05:24:39.374Z,98243.70
2023-07-11T05:27:06.071Z,98241.67
2023-07-11T05:29:32.543Z,98241.40
2023-07-11T05:31:59.136Z,98236.09
2023-07-11T05:34:26.168Z,98243.46
2023-07-11T05:36:52.816Z,98244.27
2023-07-11T05:39:19.668Z,98240.35
2023-07-11T05:41:51.636Z,98242.75
2023-07-11T05:44:18.141Z,98241.70
2023-07-11T05:46:47.834Z,98241.23
2023-07-11T05:49:15.954Z,98237.75
2023-07-11T05:51:42.615Z,98237.95
2023-07-11T05:54:09.449Z,98239.94
2023-07-11T05:56:35.965Z,98237.09
2023-07-11T05:59:02.494Z,98239.21
2023-07-11T06:01:31.043Z,98240.67
2023-07-11T06:04:23.865Z,98233.17
2023-07-11T06:06:50.449Z,98235.86
2023-07-11T06:09:19.614Z,98240.91
2023-07-11T06:11:48.857Z,98242.63
2023-07-11T06:14:16.975Z,98242.59
2023-07-11T06:16:47.183Z,98240.23
2023-07-11T06:19:17.080Z,98243.79
2023-07-11T06:21:43.623Z,98242.21
2023-07-11T06:24:10.385Z,98241.88
2023-07-11T06:26:37.133Z,98240.59
2023-07-11T06:29:03.822Z,98240.94
2023-07-11T06:31:30.365Z,98239.85
2023-07-11T06:33:57.461Z,98233.93
2023-07-11T06:36:24.307Z,98230.65
2023-07-11T06:38:51.060Z,98231.75
2023-07-11T06:41:17.617Z,98222.67
2023-07-11T06:43:44.134Z,98234.38
2023-07-11T06:46:10.800Z,98235.70
2023-07-11T06:48:37.472Z,98233.56
2023-07-11T06:51:05.376Z,98233.59
2023-07-11T06:53:34.651Z,98236.05
2023-07-11T06:56:02.626Z,98234.55
2023-07-11T06:58:29.719Z,98233.27
2023-07-11T07:00:59.671Z,98236.64
2023-07-11T07:03:26.341Z,98238.84
2023-07-11T07:05:56.271Z,98237.98
2023-07-11T07:08:24.751Z,98235.89
2023-07-11T07:10:52.067Z,98234.46
2023-07-11T07:13:21.435Z,98239.90
2023-07-11T07:15:50.224Z,98231.71
2023-07-11T07:18:17.303Z,98231.30
2023-07-11T07:20:56.221Z,98230.56
2023-07-11T07:23:25.468Z,98222.27
2023-07-11T07:25:54.693Z,98224.08
2023-07-11T07:28:21.874Z,98217.39
2023-07-11T07:30:50.137Z,98216.19
2023-07-11T07:33:16.966Z,98211.05
2023-07-11T07:35:44.123Z,98211.31
2023-07-11T07:38:11.309Z,98203.22
2023-07-11T07:40:38.780Z,98221.09
2023-07-11T07:43:05.636Z,98212.17
2023-07-11T07:45:32.312Z,98209.50
2023-07-11T07:47:58.912Z,98216.04
2023-07-11T07:50:25.633Z,98216.78
2023-07-11T07:52:52.182Z,98216.86
2023-07-11T07:55:18.823Z,98216.21
2023-07-11T07:57:46.729Z,98222.77
2023-07-11T08:00:13.943Z,98217.08
2023-07-11T08:02:40.503Z,98215.87
2023-07-11T08:05:07.706Z,98211.95
2023-07-11T08:07:34.931Z,98213.78
2023-07-11T08:10:01.544Z,98223.15
2023-07-11T08:12:28.059Z,98222.22
2023-07-11T08:14:54.557Z,98223.77
2023-07-11T08:17:21.212Z,98226.02
2023-07-11T08:19:48.518Z,98225.77
2023-07-11T08:22:15.351Z,98227.02
2023-07-11T08:24:41.923Z,98226.85
2023-07-11T08:27:08.413Z,98234.70
2023-07-11T08:29:35.135Z,98237.40
2023-07-11T08:32:01.602Z,98236.83
2023-07-11T08:34:28.259Z,98236.66
2023-07-11T08:36:55.305Z,98239.13
2023-07-11T08:39:22.397Z,98238.67
2023-07-11T08:41:52.714Z,98229.83
2023-07-11T08:44:28.300Z,98233.48
2023-07-11T08:47:22.785Z,98236.05
2023-07-11T08:49:54.006Z,98232.47
2023-07-11T08:52:22.752Z,98232.81
2023-07-11T08:55:05.956Z,98236.45
2023-07-11T08:57:36.938Z,98246.98
2023-07-11T09:00:13.066Z,98241.93
2023-07-11T09:02:51.326Z,98238.66
2023-07-11T09:05:53.309Z,98235.32
2023-07-11T09:08:21.706Z,98235.34
2023-07-11T09:11:03.484Z,98227.79
2023-07-11T09:14:01.246Z,98231.83
2023-07-11T09:16:27.812Z,98228.91
2023-07-11T09:19:06.845Z,98227.05
2023-07-11T09:21:50.350Z,98235.54
2023-07-11T09:25:00.458Z,98234.20
2023-07-11T09:27:35.731Z,98227.36
2023-07-11T09:30:34.387Z,98223.30
2023-07-11T09:33:19.140Z,98227.27
2023-07-11T09:35:46.850Z,98239.29
2023-07-11T09:38:19.284Z,98243.38
2023-07-11T09:40:52.617Z,98237.43
2023-07-11T09:43:19.218Z,98233.27
2023-07-11T09:45:45.994Z,98228.52
2023-07-11T09:48:34.313Z,98249.84
2023-07-11T09:53:30.820Z,98242.34
2023-07-11T09:56:12.345Z,98243.77
2023-07-11T09:58:41.290Z,98246.04
2023-07-11T10:01:17.597Z,98246.23
2023-07-11T10:03:46.916Z,98247.80
2023-07-11T10:06:32.742Z,98250.37
2023-07-11T10:09:23.665Z,98262.20
2023-07-11T10:11:54.614Z,98257.64
2023-07-11T10:14:29.124Z,98263.98
2023-07-11T10:16:57.405Z,98271.14
2023-07-11T10:19:24.917Z,98261.02
2023-07-11T10:21:53.093Z,98266.11
2023-07-11T10:24:25.425Z,98260.00
2023-07-11T10:27:05.192Z,98251.11
2023-07-11T10:29:40.477Z,98253.15
2023-07-11T10:32:14.580Z,98257.70
2023-07-11T10:34:45.452Z,98259.27
2023-07-11T10:37:46.621Z,98252.39
2023-07-11T10:40:25.535Z,98251.40
2023-07-11T10:43:25.609Z,98248.43
2023-07-11T10:46:10.985Z,98252.50
2023-07-11T10:48:46.759Z,98259.34
2023-07-11T10:51:21.301Z,98260.63
2023-07-11T10:54:12.575Z,98261.09
2023-07-11T10:56:45.799Z,98257.73
2023-07-11T10:59:14.427Z,98258.27
2023-07-11T11:01:59.595Z,98256.02
2023-07-11T11:04:51.035Z,98251.14
2023-07-11T11:07:17.678Z,98254.17
2023-07-11T11:10:05.148Z,98256.45
2023-07-11T11:12:39.642Z,98255.38
2023-07-11T11:15:21.582Z,98253.88
2023-07-11T11:18:24.622Z,98258.54
2023-07-11T11:21:21.136Z,98258.36
2023-07-11T11:24:18.150Z,98266.56
2023-07-11T11:27:24.373Z,98256.00
2023-07-11T11:30:15.080Z,98257.19
2023-07-11T11:32:54.257Z,98255.98
2023-07-11T11:35:47.864Z,98251.36
2023-07-11T11:38:26.304Z,98253.21
2023-07-11T11:51:33.899Z,98246.37
2023-07-11T11:54:26.928Z,98256.55
2023-07-11T11:57:00.249Z,98254.48
2023-07-11T11:59:28.930Z,98247.27
2023-07-11T12:01:55.444Z,98250.42
2023-07-11T12:04:36.776Z,98249.83
2023-07-11T12:07:03.547Z,98259.67
2023-07-11T12:09:45.840Z,98255.77
2023-07-11T12:12:19.469Z,98251.71
2023-07-11T12:14:59.733Z,98261.31
2023-07-11T12:17:32.546Z,98260.92
2023-07-11T12:20:02.693Z,98261.08
2023-07-11T12:22:38.396Z,98260.11
2023-07-11T12:27:17.686Z,98269.98
2023-07-11T12:29:54.664Z,98260.33
2023-07-11T12:32:33.723Z,98261.40
2023-07-11T12:35:06.584Z,98259.67
